createdAt,value
2023-02-11T00:01:26.052Z,16.95
2023-02-11T00:03:53.525Z,16.05
2023-02-11T00:06:20.921Z,16.27
2023-02-11T00:08:48.207Z,16.77
2023-02-11T00:11:19.496Z,16.27
2023-02-11T00:13:47.118Z,15.93
2023-02-11T00:16:20.094Z,15.88
2023-02-11T00:18:47.496Z,14.35
2023-02-11T00:21:24.707Z,15.07
2023-02-11T00:23:53.185Z,14.52
2023-02-11T00:26:25.416Z,14.43
2023-02-11T00:28:53.461Z,13.98
2023-02-11T00:31:23.006Z,14.10
2023-02-11T00:33:50.578Z,14.07
2023-02-11T00:36:22.837Z,13.40
2023-02-11T00:38:51.688Z,12.68
2023-02-11T00:41:20.134Z,12.07
2023-02-11T00:43:47.888Z,12.50
2023-02-11T00:46:16.677Z,13.35
2023-02-11T00:48:44.425Z,12.80
2023-02-11T00:51:12.124Z,13.25
2023-02-11T00:53:39.502Z,11.65
2023-02-11T00:56:08.296Z,12.07
2023-02-11T00:58:36.867Z,12.02
2023-02-11T01:01:04.987Z,11.45
2023-02-11T01:03:32.061Z,10.90
2023-02-11T01:05:58.939Z,11.40
2023-02-11T01:08:26.279Z,11.77
2023-02-11T01:11:04.030Z,11.43
2023-02-11T01:13:33.769Z,11.13
2023-02-11T01:16:01.054Z,11.15
2023-02-11T01:18:28.275Z,11.20
2023-02-11T01:20:55.502Z,10.90
2023-02-11T01:23:23.818Z,11.10
2023-02-11T01:25:51.307Z,10.77
2023-02-11T01:28:22.970Z,10.10
2023-02-11T01:33:18.114Z,10.13
2023-02-11T01:35:45.207Z,10.40
2023-02-11T01:38:26.591Z,10.32
2023-02-11T01:41:04.825Z,10.05
2023-02-11T01:43:37.287Z,9.43
2023-02-11T01:46:23.385Z,10.25
2023-02-11T01:49:07.534Z,9.73
2023-02-11T01:51:41.700Z,9.20
2023-02-11T01:54:31.607Z,9.25
2023-02-11T01:57:21.126Z,9.70
2023-02-11T02:00:10.185Z,9.38
2023-02-11T02:03:02.886Z,9.52
2023-02-11T02:05:48.740Z,8.93
2023-02-11T02:08:34.311Z,9.18
2023-02-11T02:11:03.590Z,9.35
2023-02-11T02:13:34.592Z,9.10
2023-02-11T02:16:15.076Z,8.88
2023-02-11T02:19:38.526Z,8.75
2023-02-11T02:22:35.774Z,8.77
2023-02-11T02:25:27.629Z,9.50
2023-02-11T02:28:30.737Z,9.52
2023-02-11T02:31:31.694Z,9.13
2023-02-11T02:34:24.016Z,8.52
2023-02-11T02:38:21.842Z,9.25
2023-02-11T02:41:02.511Z,10.35
2023-02-11T02:43:30.801Z,9.95
2023-02-11T02:46:10.889Z,9.38
2023-02-11T02:48:37.958Z,9.57
2023-02-11T02:51:35.922Z,9.45
2023-02-11T02:54:42.352Z,9.73
2023-02-11T02:57:44.532Z,9.65
2023-02-11T03:00:47.307Z,9.82
2023-02-11T03:03:59.695Z,8.82
2023-02-11T03:06:57.703Z,8.93
2023-02-11T03:09:55.279Z,9.45
2023-02-11T03:12:26.283Z,9.15
2023-02-11T03:14:53.328Z,8.70
2023-02-11T03:17:23.471Z,9.32
2023-02-11T03:19:51.797Z,8.68
2023-02-11T03:22:50.786Z,8.80
2023-02-11T03:25:19.098Z,8.57
2023-02-11T03:28:09.279Z,9.35
2023-02-11T03:31:07.785Z,9.13
2023-02-11T03:33:53.466Z,9.07
2023-02-11T03:36:35.728Z,8.63
2023-02-11T03:39:05.687Z,9.55
2023-02-11T03:41:35.714Z,9.15
2023-02-11T03:44:04.454Z,9.07
2023-02-11T03:46:40.152Z,9.70
2023-02-11T03:49:13.448Z,9.13
2023-02-11T03:51:41.103Z,8.95
2023-02-11T03:54:16.511Z,9.00
2023-02-11T03:56:56.823Z,9.50
2023-02-11T03:59:24.005Z,8.55
2023-02-11T04:01:51.399Z,9.50
2023-02-11T04:04:19.041Z,8.85
2023-02-11T04:06:46.171Z,8.65
2023-02-11T04:09:15.190Z,9.32
2023-02-11T04:11:42.138Z,8.73
2023-02-11T04:14:08.997Z,9.52
2023-02-11T04:16:36.024Z,8.75
2023-02-11T04:19:02.993Z,8.93
2023-02-11T04:21:29.812Z,9.10
2023-02-11T04:23:56.724Z,9.13
2023-02-11T04:26:23.640Z,9.25
2023-02-11T04:28:50.587Z,9.45
2023-02-11T04:31:17.625Z,8.60
2023-02-11T04:33:44.585Z,9.43
2023-02-11T04:36:11.623Z,8.75
2023-02-11T04:38:38.737Z,9.10
2023-02-11T04:41:05.709Z,10.13
2023-02-11T04:43:32.595Z,9.05
2023-02-11T04:45:59.560Z,9.50
2023-02-11T04:48:26.649Z,9.20
2023-02-11T04:50:53.599Z,9.50
2023-02-11T04:53:20.532Z,9.50
2023-02-11T04:55:51.448Z,9.60
2023-02-11T04:58:19.660Z,9.57
2023-02-11T05:00:47.062Z,8.70
2023-02-11T05:03:14.232Z,9.55
2023-02-11T05:05:43.054Z,9.00
2023-02-11T05:08:11.294Z,9.55
2023-02-11T05:10:38.596Z,9.30
2023-02-11T05:13:05.542Z,9.50
2023-02-11T05:15:32.493Z,9.23
2023-02-11T05:17:59.331Z,9.50
2023-02-11T05:20:26.198Z,9.77
2023-02-11T05:22:53.139Z,9.68
2023-02-11T05:25:20.681Z,9.90
2023-02-11T05:27:47.654Z,9.57
2023-02-11T05:30:14.937Z,9.23
2023-02-11T05:32:41.947Z,9.88
2023-02-11T05:35:09.469Z,10.55
2023-02-11T05:37:36.662Z,10.50
2023-02-11T05:40:04.845Z,9.23
2023-02-11T05:42:31.861Z,9.77
2023-02-11T05:44:58.789Z,10.90
2023-02-11T05:47:25.806Z,9.88
2023-02-11T05:49:53.606Z,9.68
2023-02-11T05:52:22.302Z,9.95
2023-02-11T05:54:49.823Z,10.13
2023-02-11T05:57:17.724Z,9.43
2023-02-11T05:59:47.584Z,10.80
2023-02-11T06:02:14.523Z,10.35
2023-02-11T06:04:41.659Z,10.73
2023-02-11T06:07:08.616Z,11.13
2023-02-11T06:09:38.897Z,10.00
2023-02-11T06:12:06.089Z,10.60
2023-02-11T06:14:34.297Z,11.02
2023-02-11T06:17:01.751Z,10.50
2023-02-11T06:19:28.745Z,10.43
2023-02-11T06:21:56.704Z,10.68
2023-02-11T06:24:44.325Z,10.93
2023-02-11T06:27:11.024Z,10.90
2023-02-11T06:29:37.915Z,11.95
2023-02-11T06:32:05.221Z,11.15
2023-02-11T06:34:32.266Z,12.23
2023-02-11T06:36:59.180Z,11.85
2023-02-11T06:39:26.135Z,11.90
2023-02-11T06:41:53.068Z,11.65
2023-02-11T06:44:19.941Z,12.00
2023-02-11T06:46:47.104Z,12.13
2023-02-11T06:49:14.136Z,12.75
2023-02-11T06:51:41.147Z,12.32
2023-02-11T06:54:08.482Z,12.60
2023-02-11T06:56:36.813Z,13.38
2023-02-11T06:59:03.825Z,12.60
2023-02-11T07:01:30.955Z,13.45
2023-02-11T07:03:58.534Z,12.43
2023-02-11T07:06:27.913Z,13.43
2023-02-11T07:08:55.802Z,13.65
2023-02-11T07:11:27.783Z,14.20
2023-02-11T07:14:00.488Z,14.43
2023-02-11T07:16:27.515Z,13.95
2023-02-11T07:18:54.441Z,14.02
2023-02-11T07:21:24.266Z,15.10
2023-02-11T07:23:51.970Z,14.18
2023-02-11T07:26:29.088Z,14.75
2023-02-11T07:28:56.148Z,14.70
2023-02-11T07:31:27.659Z,15.65
2023-02-11T07:34:00.000Z,15.63
2023-02-11T07:36:30.255Z,15.55
2023-02-11T07:38:58.092Z,15.93
2023-02-11T07:41:26.564Z,16.83
2023-02-11T07:43:53.638Z,16.02
2023-02-11T07:46:27.328Z,17.42
2023-02-11T07:48:55.183Z,16.10
2023-02-11T07:51:23.508Z,16.15
2023-02-11T07:53:50.676Z,15.90
2023-02-11T07:56:19.710Z,15.32
2023-02-11T07:58:47.147Z,16.92
2023-02-11T08:01:25.868Z,15.82
2023-02-11T08:03:53.853Z,15.68
2023-02-11T08:06:24.980Z,16.75
2023-02-11T08:08:52.310Z,16.45
2023-02-11T08:11:23.693Z,16.40
2023-02-11T08:13:51.313Z,15.57
2023-02-11T08:16:24.575Z,17.33
2023-02-11T08:18:53.930Z,17.88
2023-02-11T08:21:21.261Z,17.00
2023-02-11T08:23:49.350Z,18.77
2023-02-11T08:26:21.617Z,18.70
2023-02-11T08:28:51.990Z,18.45
2023-02-11T08:31:26.339Z,18.35
2023-02-11T08:36:25.889Z,19.17
2023-02-11T08:39:08.636Z,20.20
2023-02-11T08:41:43.846Z,19.67
2023-02-11T08:44:11.610Z,20.40
2023-02-11T08:46:38.553Z,20.70
2023-02-11T08:49:05.590Z,22.00
2023-02-11T08:51:33.014Z,20.98
2023-02-11T08:54:01.032Z,21.67
2023-02-11T08:56:30.831Z,21.73
2023-02-11T08:58:57.979Z,21.42
2023-02-11T09:01:29.732Z,22.08
2023-02-11T09:03:58.410Z,23.38
2023-02-11T09:06:26.286Z,21.75
2023-02-11T09:08:56.920Z,23.20
2023-02-11T09:11:35.768Z,23.02
2023-02-11T09:14:04.607Z,23.13
2023-02-11T09:16:36.175Z,25.15
2023-02-11T09:19:05.586Z,25.58
2023-02-11T09:21:33.052Z,23.80
2023-02-11T09:24:00.131Z,24.05
2023-02-11T09:26:34.728Z,24.25
2023-02-11T09:29:03.595Z,24.35
2023-02-11T09:31:33.061Z,27.05
2023-02-11T09:34:05.917Z,24.58
2023-02-11T09:36:39.558Z,25.90
2023-02-11T09:39:13.902Z,24.30
2023-02-11T09:42:16.399Z,24.63
2023-02-11T09:44:46.682Z,26.10
2023-02-11T09:47:28.931Z,25.77
2023-02-11T09:50:11.203Z,24.73
2023-02-11T09:53:16.773Z,24.33
2023-02-11T09:58:24.508Z,26.25
2023-02-11T10:01:23.340Z,25.33
2023-02-11T10:04:25.420Z,25.65
2023-02-11T10:06:57.557Z,26.27
2023-02-11T10:09:57.510Z,34.53
2023-02-11T10:13:04.553Z,26.83
2023-02-11T10:16:16.168Z,28.15
2023-02-11T10:19:15.413Z,28.92
2023-02-11T10:22:16.518Z,31.70
2023-02-11T10:24:54.480Z,28.48
2023-02-11T10:27:31.411Z,27.75
2023-02-11T10:30:19.165Z,26.40
2023-02-11T10:33:23.092Z,25.02
2023-02-11T10:35:50.165Z,24.23
2023-02-11T10:38:17.387Z,25.00
2023-02-11T10:40:44.559Z,25.88
2023-02-11T10:43:16.635Z,24.75
2023-02-11T10:45:50.874Z,25.77
2023-02-11T10:48:43.852Z,25.40
2023-02-11T10:51:13.409Z,25.20
2023-02-11T10:53:41.391Z,24.00
2023-02-11T10:56:19.732Z,33.38
2023-02-11T10:58:59.010Z,41.35
2023-02-11T11:01:50.005Z,26.08
2023-02-11T11:04:36.472Z,25.60
2023-02-11T11:07:29.307Z,25.92
2023-02-11T11:10:25.443Z,24.77
2023-02-11T11:12:52.409Z,22.80
2023-02-11T11:15:31.484Z,25.05
2023-02-11T11:18:22.850Z,24.20
2023-02-11T11:21:23.767Z,23.90
2023-02-11T11:24:03.695Z,24.10
2023-02-11T11:26:46.258Z,23.38
2023-02-11T11:29:37.012Z,24.58
2023-02-11T11:32:16.592Z,23.60
2023-02-11T11:34:52.553Z,23.52
2023-02-11T11:37:26.064Z,23.42
2023-02-11T11:40:08.156Z,23.20
2023-02-11T11:42:39.368Z,25.17
2023-02-11T11:45:15.350Z,22.35
2023-02-11T11:48:01.023Z,24.95
2023-02-11T11:50:39.028Z,22.67
2023-02-11T11:53:24.765Z,22.92
2023-02-11T11:56:03.031Z,20.45
2023-02-11T11:58:32.145Z,22.50
2023-02-11T12:01:31.321Z,22.55
2023-02-11T12:04:42.580Z,21.02
2023-02-11T12:07:40.243Z,22.40
2023-02-11T12:10:38.314Z,22.13
2023-02-11T12:13:55.884Z,22.17
2023-02-11T12:16:50.491Z,20.88
2023-02-11T12:19:52.418Z,21.73
2023-02-11T12:22:39.707Z,22.35
2023-02-11T12:25:45.714Z,22.23
2023-02-11T12:28:50.857Z,21.92
2023-02-11T12:31:49.108Z,21.02
2023-02-11T12:34:52.950Z,21.25
2023-02-11T12:37:45.520Z,20.00
2023-02-11T12:40:26.727Z,20.73
2023-02-11T12:43:17.256Z,21.35
2023-02-11T12:46:17.176Z,19.88
2023-02-11T12:49:26.315Z,20.20
2023-02-11T12:52:43.106Z,19.13
2023-02-11T12:55:26.524Z,19.13
2023-02-11T12:57:58.013Z,18.40
2023-02-11T13:00:46.771Z,17.83
2023-02-11T13:03:31.889Z,18.45
2023-02-11T13:06:06.940Z,17.83
2023-02-11T13:08:40.700Z,17.58
2023-02-11T13:11:24.424Z,16.45
2023-02-11T13:14:10.711Z,15.10
2023-02-11T13:16:50.907Z,16.63
2023-02-11T13:19:27.389Z,17.40
2023-02-11T13:22:17.138Z,14.68
2023-02-11T13:24:59.748Z,13.48
2023-02-11T13:27:43.834Z,12.98
2023-02-11T13:30:19.975Z,12.52
2023-02-11T13:32:56.035Z,12.57
2023-02-11T13:35:41.098Z,12.55
2023-02-11T13:38:17.046Z,12.55
2023-02-11T13:40:45.170Z,12.57
2023-02-11T13:43:25.502Z,12.23
2023-02-11T13:46:00.894Z,12.65
2023-02-11T13:48:46.216Z,12.45
2023-02-11T13:51:18.772Z,12.05
2023-02-11T13:53:51.560Z,10.77
2023-02-11T13:56:29.508Z,11.75
2023-02-11T13:59:01.878Z,11.45
2023-02-11T14:02:07.178Z,10.02
2023-02-11T14:04:53.391Z,10.25
2023-02-11T14:07:51.929Z,10.10
2023-02-11T14:10:43.565Z,8.55
2023-02-11T14:13:30.071Z,8.43
2023-02-11T14:16:20.308Z,7.97
2023-02-11T14:18:55.100Z,8.40
2023-02-11T14:21:33.161Z,8.60
2023-02-11T14:24:04.860Z,11.65
2023-02-11T14:27:15.708Z,13.30
2023-02-11T14:29:51.096Z,12.45
2023-02-11T14:32:42.439Z,13.23
2023-02-11T14:35:26.915Z,12.93
2023-02-11T14:38:39.858Z,10.65
2023-02-11T14:41:23.076Z,9.95
2023-02-11T14:43:59.493Z,11.30
2023-02-11T14:46:32.973Z,13.35
2023-02-11T14:49:05.206Z,14.50
2023-02-11T14:51:37.342Z,14.23
2023-02-11T14:54:24.401Z,11.65
2023-02-11T14:57:16.290Z,11.43
2023-02-11T15:00:22.094Z,10.20
2023-02-11T15:02:49.395Z,11.38
2023-02-11T15:05:29.692Z,12.52
2023-02-11T15:08:04.805Z,11.18
2023-02-11T15:10:41.459Z,10.50
2023-02-11T15:13:18.609Z,10.38
2023-02-11T15:15:46.999Z,11.43
2023-02-11T15:18:24.100Z,12.32
2023-02-11T15:20:52.356Z,14.23
2023-02-11T15:23:28.827Z,14.20
2023-02-11T15:25:56.526Z,15.00
2023-02-11T15:28:31.686Z,14.82
2023-02-11T15:31:15.152Z,15.52
2023-02-11T15:33:42.319Z,15.57
2023-02-11T15:36:13.066Z,14.90
2023-02-11T15:38:40.978Z,14.95
2023-02-11T15:41:08.859Z,14.60
2023-02-11T15:43:53.250Z,14.95
2023-02-11T15:46:23.481Z,14.25
2023-02-11T15:48:55.269Z,13.70
2023-02-11T15:51:39.775Z,13.10
2023-02-11T15:54:21.048Z,12.75
2023-02-11T15:56:52.193Z,12.05
2023-02-11T15:59:38.106Z,12.35
2023-02-11T16:02:21.860Z,12.13
2023-02-11T16:04:59.275Z,12.45
2023-02-11T16:07:50.024Z,12.00
2023-02-11T16:10:30.448Z,11.65
2023-02-11T16:13:19.921Z,12.27
2023-02-11T16:15:52.703Z,12.32
2023-02-11T16:18:37.773Z,12.27
2023-02-11T16:21:15.871Z,11.70
2023-02-11T16:23:50.380Z,12.32
2023-02-11T16:29:31.498Z,13.55
2023-02-11T16:32:20.695Z,13.70
2023-02-11T16:34:49.881Z,12.65
2023-02-11T16:37:17.291Z,13.40
2023-02-11T16:39:44.559Z,22.75
2023-02-11T16:42:13.221Z,16.90
2023-02-11T16:44:40.568Z,22.15
2023-02-11T16:47:19.354Z,17.13
2023-02-11T16:49:46.576Z,17.83
2023-02-11T16:52:17.660Z,18.70
2023-02-11T16:54:44.618Z,17.50
2023-02-11T16:57:19.145Z,19.20
2023-02-11T16:59:46.528Z,17.08
2023-02-11T17:02:24.738Z,16.83
2023-02-11T17:04:59.415Z,15.43
2023-02-11T17:07:27.902Z,14.65
2023-02-11T17:09:55.213Z,15.65
2023-02-11T17:12:25.360Z,14.50
2023-02-11T17:14:54.623Z,15.15
2023-02-11T17:17:23.908Z,15.85
2023-02-11T17:19:51.324Z,15.57
2023-02-11T17:22:18.679Z,15.20
2023-02-11T17:24:45.669Z,15.57
2023-02-11T17:27:13.081Z,15.75
2023-02-11T17:29:40.130Z,15.45
2023-02-11T17:32:07.120Z,19.05
2023-02-11T17:34:34.077Z,16.65
2023-02-11T17:37:05.206Z,16.40
2023-02-11T17:39:32.272Z,15.90
2023-02-11T17:41:59.188Z,16.10
2023-02-11T17:44:26.129Z,16.70
2023-02-11T17:46:53.094Z,17.88
2023-02-11T17:49:20.363Z,17.20
2023-02-11T17:51:47.336Z,16.60
2023-02-11T17:54:18.625Z,16.02
2023-02-11T17:56:50.549Z,17.08
2023-02-11T17:59:17.861Z,16.88
2023-02-11T18:01:45.143Z,16.63
2023-02-11T18:04:18.150Z,18.42
2023-02-11T18:06:46.256Z,18.73
2023-02-11T18:09:13.455Z,16.92
2023-02-11T18:11:41.138Z,18.63
2023-02-11T18:14:10.042Z,18.95
2023-02-11T18:16:39.690Z,22.05
2023-02-11T18:19:07.718Z,19.40
2023-02-11T18:21:35.292Z,19.27
2023-02-11T18:24:06.404Z,19.23
2023-02-11T18:26:35.004Z,18.20
2023-02-11T18:29:03.787Z,18.70
2023-02-11T18:31:31.730Z,18.73
2023-02-11T18:33:58.862Z,17.73
2023-02-11T18:36:25.882Z,17.95
2023-02-11T18:38:54.220Z,17.88
2023-02-11T18:41:21.450Z,18.98
2023-02-11T18:43:48.657Z,19.02
2023-02-11T18:46:15.840Z,20.38
2023-02-11T18:48:44.812Z,20.77
2023-02-11T18:51:16.160Z,20.45
2023-02-11T18:53:43.313Z,20.17
2023-02-11T18:56:17.744Z,20.52
2023-02-11T18:58:45.048Z,19.98
2023-02-11T19:01:20.838Z,20.45
2023-02-11T19:03:48.621Z,21.90
2023-02-11T19:06:37.327Z,25.27
2023-02-11T19:09:09.850Z,25.40
2023-02-11T19:11:49.001Z,23.80
2023-02-11T19:14:21.810Z,30.48
2023-02-11T19:16:51.607Z,29.85
2023-02-11T19:19:19.507Z,25.50
2023-02-11T19:21:47.497Z,24.90
2023-02-11T19:24:18.822Z,26.02
2023-02-11T19:26:47.819Z,24.50
2023-02-11T19:29:15.206Z,24.27
2023-02-11T19:31:43.408Z,23.05
2023-02-11T19:34:14.049Z,21.98
2023-02-11T19:36:41.840Z,23.15
2023-02-11T19:39:10.162Z,22.70
2023-02-11T19:41:37.850Z,21.92
2023-02-11T19:44:07.797Z,22.02
2023-02-11T19:46:38.359Z,21.52
2023-02-11T19:49:05.668Z,21.35
2023-02-11T19:51:33.868Z,22.60
2023-02-11T19:54:00.998Z,22.45
2023-02-11T19:56:28.634Z,20.73
2023-02-11T19:58:56.008Z,21.45
2023-02-11T20:01:25.330Z,21.25
2023-02-11T20:03:54.883Z,21.33
2023-02-11T20:06:28.906Z,21.27
2023-02-11T20:08:59.461Z,21.58
2023-02-11T20:11:30.057Z,21.00
2023-02-11T20:13:58.321Z,22.13
2023-02-11T20:16:44.596Z,21.38
2023-02-11T20:19:17.665Z,21.50
2023-02-11T20:21:47.859Z,20.98
2023-02-11T20:24:17.403Z,20.55
2023-02-11T20:26:46.428Z,20.27
2023-02-11T20:29:13.631Z,20.48
2023-02-11T20:31:42.342Z,21.60
2023-02-11T20:34:12.059Z,20.70
2023-02-11T20:36:40.453Z,20.80
2023-02-11T20:39:08.282Z,20.27
2023-02-11T20:41:40.834Z,21.42
2023-02-11T20:44:10.548Z,20.98
2023-02-11T20:46:41.576Z,21.75
2023-02-11T20:49:13.487Z,21.75
2023-02-11T20:51:40.786Z,21.65
2023-02-11T20:54:14.474Z,20.95
2023-02-11T20:56:41.969Z,21.33
2023-02-11T20:59:09.541Z,21.17
2023-02-11T21:01:43.464Z,21.85
2023-02-11T21:04:21.401Z,21.27
2023-02-11T21:06:54.718Z,21.25
2023-02-11T21:09:26.186Z,19.90
2023-02-11T21:11:54.388Z,21.27
2023-02-11T21:14:23.920Z,19.85
2023-02-11T21:16:51.300Z,20.75
2023-02-11T21:19:18.733Z,22.05
2023-02-11T21:21:45.724Z,21.48
2023-02-11T21:24:13.128Z,21.67
2023-02-11T21:26:40.387Z,20.85
2023-02-11T21:29:08.624Z,22.15
2023-02-11T21:31:36.685Z,22.60
2023-02-11T21:34:04.912Z,22.02
2023-02-11T21:36:31.953Z,21.67
2023-02-11T21:39:00.070Z,22.77
2023-02-11T21:41:27.481Z,21.85
2023-02-11T21:43:54.923Z,22.40
2023-02-11T21:46:22.368Z,22.85
2023-02-11T21:48:50.081Z,22.73
2023-02-11T21:51:21.850Z,22.17
2023-02-11T21:53:54.730Z,22.05
2023-02-11T21:56:22.447Z,21.17
2023-02-11T21:58:54.563Z,22.92
2023-02-11T22:01:30.088Z,21.88
2023-02-11T22:03:59.412Z,22.77
2023-02-11T22:06:32.811Z,22.25
2023-02-11T22:09:07.424Z,21.05
2023-02-11T22:11:34.711Z,21.17
2023-02-11T22:14:04.786Z,22.02
2023-02-11T22:16:32.005Z,22.30
2023-02-11T22:19:00.193Z,22.70
2023-02-11T22:21:27.173Z,22.42
2023-02-11T22:23:55.888Z,21.02
2023-02-11T22:26:25.886Z,22.27
2023-02-11T22:28:53.732Z,22.25
2023-02-11T22:31:31.828Z,21.73
2023-02-11T22:34:00.315Z,22.30
2023-02-11T22:36:31.305Z,22.00
2023-02-11T22:39:12.429Z,22.33
2023-02-11T22:41:42.505Z,21.77
2023-02-11T22:44:10.925Z,21.15
2023-02-11T22:46:38.331Z,21.23
2023-02-11T22:49:07.210Z,21.70
2023-02-11T22:51:34.123Z,22.88
2023-02-11T22:54:06.063Z,21.98
2023-02-11T22:56:35.152Z,21.70
2023-02-11T22:59:06.955Z,22.65
2023-02-11T23:01:34.671Z,21.60
2023-02-11T23:04:04.990Z,23.58
2023-02-11T23:06:32.136Z,21.75
2023-02-11T23:08:59.121Z,21.33
2023-02-11T23:11:30.706Z,23.65
2023-02-11T23:13:58.723Z,23.08
2023-02-11T23:16:31.236Z,22.65
2023-02-11T23:19:06.146Z,21.55
2023-02-11T23:21:37.782Z,23.55
2023-02-11T23:24:12.792Z,21.48
2023-02-11T23:26:42.387Z,23.20
2023-02-11T23:29:10.741Z,23.73
2023-02-11T23:31:43.295Z,21.85
2023-02-11T23:34:11.215Z,23.00
2023-02-11T23:36:38.257Z,22.80
2023-02-11T23:39:05.826Z,21.40
2023-02-11T23:41:32.793Z,22.55
2023-02-11T23:43:59.765Z,21.55
2023-02-11T23:46:27.796Z,21.75
2023-02-11T23:48:54.996Z,21.40
2023-02-11T23:51:23.552Z,21.55
2023-02-11T23:53:52.550Z,22.02
2023-02-11T23:56:24.857Z,20.52
2023-02-11T23:58:55.077Z,21.02
